sensor_id;sensor_type;location;lat;lon;timestamp;pressure;altitude;pressure_sealevel;temperature;humidity
17855;BME280;9053;53.358;6.382;2024-02-21T00:01:14;101798.47;;;10.94;100.00
17855;BME280;9053;53.358;6.382;2024-02-21T00:03:51;101784.41;;;10.94;100.00
17855;BME280;9053;53.358;6.382;2024-02-21T00:06:23;101768.59;;;10.94;100.00
17855;BME280;9053;53.358;6.382;2024-02-21T00:08:53;101759.88;;;10.95;100.00
17855;BME280;9053;53.358;6.382;2024-02-21T00:11:25;101781.00;;;10.96;100.00
17855;BME280;9053;53.358;6.382;2024-02-21T00:14:12;101780.94;;;10.95;100.00
17855;BME280;9053;53.358;6.382;2024-02-21T00:16:42;101789.44;;;10.89;100.00
17855;BME280;9053;53.358;6.382;2024-02-21T00:19:12;101781.31;;;10.85;100.00
17855;BME280;9053;53.358;6.382;2024-02-21T00:21:42;101779.59;;;10.85;100.00
17855;BME280;9053;53.358;6.382;2024-02-21T00:24:14;101768.03;;;10.81;100.00
17855;BME280;9053;53.358;6.382;2024-02-21T00:26:49;101772.44;;;10.82;100.00
17855;BME280;9053;53.358;6.382;2024-02-21T00:29:19;101764.41;;;10.79;100.00
17855;BME280;9053;53.358;6.382;2024-02-21T00:31:49;101772.31;;;10.79;100.00
17855;BME280;9053;53.358;6.382;2024-02-21T00:34:21;101761.56;;;10.75;100.00
17855;BME280;9053;53.358;6.382;2024-02-21T00:36:53;101772.09;;;10.75;100.00
17855;BME280;9053;53.358;6.382;2024-02-21T00:39:25;101757.91;;;10.71;100.00
17855;BME280;9053;53.358;6.382;2024-02-21T00:42:02;101751.66;;;10.69;100.00
17855;BME280;9053;53.358;6.382;2024-02-21T00:44:36;101747.41;;;10.73;100.00
17855;BME280;9053;53.358;6.382;2024-02-21T00:47:06;101736.97;;;10.74;100.00
17855;BME280;9053;53.358;6.382;2024-02-21T00:49:40;101746.44;;;10.71;100.00
17855;BME280;9053;53.358;6.382;2024-02-21T00:52:12;101749.81;;;10.68;100.00
17855;BME280;9053;53.358;6.382;2024-02-21T00:55:01;101741.78;;;10.65;100.00
17855;BME280;9053;53.358;6.382;2024-02-21T00:57:36;101744.38;;;10.64;100.00
17855;BME280;9053;53.358;6.382;2024-02-21T01:00:07;101746.91;;;10.62;100.00
17855;BME280;9053;53.358;6.382;2024-02-21T01:02:39;101747.81;;;10.63;100.00
17855;BME280;9053;53.358;6.382;2024-02-21T01:05:15;101746.06;;;10.63;100.00
17855;BME280;9053;53.358;6.382;2024-02-21T01:07:55;101746.25;;;10.66;100.00
17855;BME280;9053;53.358;6.382;2024-02-21T01:10:28;101741.00;;;10.66;100.00
17855;BME280;9053;53.358;6.382;2024-02-21T01:13:03;101738.41;;;10.68;100.00
17855;BME280;9053;53.358;6.382;2024-02-21T01:15:38;101737.50;;;10.67;100.00
17855;BME280;9053;53.358;6.382;2024-02-21T01:18:12;101717.97;;;10.62;100.00
17855;BME280;9053;53.358;6.382;2024-02-21T01:21:57;101721.44;;;10.61;100.00
17855;BME280;9053;53.358;6.382;2024-02-21T01:30:14;101736.25;;;10.59;100.00
17855;BME280;9053;53.358;6.382;2024-02-21T01:32:49;101725.66;;;10.57;100.00
17855;BME280;9053;53.358;6.382;2024-02-21T01:37:59;101728.06;;;10.53;100.00
17855;BME280;9053;53.358;6.382;2024-02-21T01:40:34;101721.00;;;10.52;100.00
17855;BME280;9053;53.358;6.382;2024-02-21T01:43:15;101714.84;;;10.51;100.00
17855;BME280;9053;53.358;6.382;2024-02-21T01:45:52;101713.88;;;10.49;100.00
17855;BME280;9053;53.358;6.382;2024-02-21T01:48:23;101731.44;;;10.50;100.00
17855;BME280;9053;53.358;6.382;2024-02-21T01:51:22;101713.03;;;10.50;100.00
17855;BME280;9053;53.358;6.382;2024-02-21T01:54:06;101722.66;;;10.50;100.00
17855;BME280;9053;53.358;6.382;2024-02-21T01:56:53;101718.16;;;10.47;100.00
17855;BME280;9053;53.358;6.382;2024-02-21T01:59:58;101718.16;;;10.47;100.00
17855;BME280;9053;53.358;6.382;2024-02-21T02:03:04;101718.28;;;10.50;100.00
17855;BME280;9053;53.358;6.382;2024-02-21T02:06:05;101705.97;;;10.49;100.00
17855;BME280;9053;53.358;6.382;2024-02-21T02:08:50;101710.47;;;10.52;100.00
17855;BME280;9053;53.358;6.382;2024-02-21T02:11:40;101721.00;;;10.52;100.00
17855;BME280;9053;53.358;6.382;2024-02-21T02:14:46;101711.25;;;10.49;100.00
17855;BME280;9053;53.358;6.382;2024-02-21T02:18:21;101707.94;;;10.53;100.00
17855;BME280;9053;53.358;6.382;2024-02-21T02:21:52;101704.25;;;10.50;100.00
17855;BME280;9053;53.358;6.382;2024-02-21T02:25:14;101706.88;;;10.50;100.00
17855;BME280;9053;53.358;6.382;2024-02-21T02:28:15;101707.72;;;10.49;100.00
17855;BME280;9053;53.358;6.382;2024-02-21T02:31:03;101701.63;;;10.50;100.00
17855;BME280;9053;53.358;6.382;2024-02-21T02:51:40;101669.06;;;10.48;100.00
17855;BME280;9053;53.358;6.382;2024-02-21T02:54:40;101663.81;;;10.48;100.00
17855;BME280;9053;53.358;6.382;2024-02-21T03:16:15;101654.00;;;10.44;100.00
17855;BME280;9053;53.358;6.382;2024-02-21T03:42:58;101647.94;;;10.64;100.00
17855;BME280;9053;53.358;6.382;2024-02-21T03:46:59;101643.22;;;10.57;100.00
17855;BME280;9053;53.358;6.382;2024-02-21T03:49:45;101663.63;;;10.63;100.00
17855;BME280;9053;53.358;6.382;2024-02-21T03:52:49;101656.38;;;10.57;100.00
17855;BME280;9053;53.358;6.382;2024-02-21T03:55:35;101647.63;;;10.58;100.00
17855;BME280;9053;53.358;6.382;2024-02-21T03:58:20;101637.81;;;10.54;100.00
17855;BME280;9053;53.358;6.382;2024-02-21T04:01:18;101637.88;;;10.55;100.00
17855;BME280;9053;53.358;6.382;2024-02-21T04:04:06;101628.09;;;10.53;100.00
17855;BME280;9053;53.358;6.382;2024-02-21T04:06:46;101631.56;;;10.52;100.00
17855;BME280;9053;53.358;6.382;2024-02-21T04:09:19;101640.31;;;10.51;100.00
17855;BME280;9053;53.358;6.382;2024-02-21T04:11:52;101641.13;;;10.50;100.00
17855;BME280;9053;53.358;6.382;2024-02-21T04:14:27;101641.22;;;10.51;100.00
17855;BME280;9053;53.358;6.382;2024-02-21T04:16:57;101643.00;;;10.52;100.00
17855;BME280;9053;53.358;6.382;2024-02-21T04:19:31;101641.25;;;10.53;100.00
17855;BME280;9053;53.358;6.382;2024-02-21T04:22:02;101641.34;;;10.54;100.00
17855;BME280;9053;53.358;6.382;2024-02-21T04:38:33;101639.47;;;10.52;100.00
17855;BME280;9053;53.358;6.382;2024-02-21T04:50:47;101623.00;;;10.56;100.00
17855;BME280;9053;53.358;6.382;2024-02-21T04:54:00;101617.75;;;10.56;100.00
17855;BME280;9053;53.358;6.382;2024-02-21T04:57:00;101616.06;;;10.58;100.00
17855;BME280;9053;53.358;6.382;2024-02-21T04:59:41;101615.31;;;10.60;100.00
17855;BME280;9053;53.358;6.382;2024-02-21T05:02:15;101609.16;;;10.60;100.00
17855;BME280;9053;53.358;6.382;2024-02-21T05:04:47;101595.09;;;10.59;100.00
17855;BME280;9053;53.358;6.382;2024-02-21T05:07:38;101598.75;;;10.63;100.00
17855;BME280;9053;53.358;6.382;2024-02-21T05:10:40;101589.75;;;10.58;100.00
17855;BME280;9053;53.358;6.382;2024-02-21T05:13:14;101584.59;;;10.59;100.00
17855;BME280;9053;53.358;6.382;2024-02-21T05:15:59;101592.59;;;10.63;100.00
17855;BME280;9053;53.358;6.382;2024-02-21T05:19:02;101588.94;;;10.59;100.00
17855;BME280;9053;53.358;6.382;2024-02-21T05:21:37;101596.00;;;10.60;100.00
17855;BME280;9053;53.358;6.382;2024-02-21T05:24:26;101587.22;;;10.59;100.00
17855;BME280;9053;53.358;6.382;2024-02-21T05:27:01;101588.19;;;10.61;100.00
17855;BME280;9053;53.358;6.382;2024-02-21T05:29:32;101596.97;;;10.62;100.00
17855;BME280;9053;53.358;6.382;2024-02-21T05:32:05;101592.59;;;10.63;100.00
17855;BME280;9053;53.358;6.382;2024-02-21T05:34:43;101589.16;;;10.64;100.00
17855;BME280;9053;53.358;6.382;2024-02-21T05:37:20;101582.16;;;10.64;100.00
17855;BME280;9053;53.358;6.382;2024-02-21T05:39:57;101584.66;;;10.61;100.00
17855;BME280;9053;53.358;6.382;2024-02-21T05:42:32;101583.06;;;10.65;100.00
17855;BME280;9053;53.358;6.382;2024-02-21T05:45:06;101588.41;;;10.66;100.00
17855;BME280;9053;53.358;6.382;2024-02-21T05:47:37;101576.06;;;10.65;100.00
17855;BME280;9053;53.358;6.382;2024-02-21T05:50:08;101571.00;;;10.70;100.00
17855;BME280;9053;53.358;6.382;2024-02-21T05:52:51;101573.66;;;10.70;100.00
17855;BME280;9053;53.358;6.382;2024-02-21T05:55:21;101565.88;;;10.73;100.00
17855;BME280;9053;53.358;6.382;2024-02-21T05:57:56;101561.59;;;10.75;100.00
17855;BME280;9053;53.358;6.382;2024-02-21T06:00:29;101552.81;;;10.74;100.00
17855;BME280;9053;53.358;6.382;2024-02-21T06:03:08;101552.72;;;10.73;100.00
17855;BME280;9053;53.358;6.382;2024-02-21T06:05:38;101556.13;;;10.70;100.00
17855;BME280;9053;53.358;6.382;2024-02-21T06:08:08;101556.06;;;10.69;100.00
17855;BME280;9053;53.358;6.382;2024-02-21T06:10:45;101553.38;;;10.67;100.00
17855;BME280;9053;53.358;6.382;2024-02-21T06:13:21;101554.22;;;10.66;100.00
17855;BME280;9053;53.358;6.382;2024-02-21T06:15:54;101548.78;;;10.63;100.00
17855;BME280;9053;53.358;6.382;2024-02-21T06:18:26;101550.53;;;10.63;100.00
17855;BME280;9053;53.358;6.382;2024-02-21T06:21:00;101550.53;;;10.63;100.00
17855;BME280;9053;53.358;6.382;2024-02-21T06:23:32;101541.59;;;10.59;100.00
17855;BME280;9053;53.358;6.382;2024-02-21T06:26:08;101534.69;;;10.61;100.00
17855;BME280;9053;53.358;6.382;2024-02-21T06:28:44;101537.38;;;10.63;100.00
17855;BME280;9053;53.358;6.382;2024-02-21T06:34:20;101533.00;;;10.63;100.00
17855;BME280;9053;53.358;6.382;2024-02-21T06:37:07;101534.81;;;10.64;100.00
17855;BME280;9053;53.358;6.382;2024-02-21T06:39:38;101540.13;;;10.66;100.00
17855;BME280;9053;53.358;6.382;2024-02-21T06:42:08;101537.56;;;10.67;100.00
17855;BME280;9053;53.358;6.382;2024-02-21T06:47:49;101527.94;;;10.68;100.00
17855;BME280;9053;53.358;6.382;2024-02-21T06:50:30;101530.66;;;10.69;100.00
17855;BME280;9053;53.358;6.382;2024-02-21T06:53:02;101529.75;;;10.69;100.00
17855;BME280;9053;53.358;6.382;2024-02-21T06:55:37;101524.50;;;10.69;100.00
17855;BME280;9053;53.358;6.382;2024-02-21T06:58:08;101525.41;;;10.69;100.00
17855;BME280;9053;53.358;6.382;2024-02-21T07:00:42;101526.28;;;10.70;100.00
17855;BME280;9053;53.358;6.382;2024-02-21T07:03:20;101527.19;;;10.70;100.00
17855;BME280;9053;53.358;6.382;2024-02-21T07:05:52;101530.66;;;10.69;100.00
17855;BME280;9053;53.358;6.382;2024-02-21T07:08:23;101529.91;;;10.72;100.00
17855;BME280;9053;53.358;6.382;2024-02-21T07:10:54;101533.28;;;10.69;100.00
17855;BME280;9053;53.358;6.382;2024-02-21T07:13:25;101521.91;;;10.70;100.00
17855;BME280;9053;53.358;6.382;2024-02-21T07:15:55;101525.44;;;10.71;100.00
17855;BME280;9053;53.358;6.382;2024-02-21T07:18:31;101520.34;;;10.74;100.00
17855;BME280;9053;53.358;6.382;2024-02-21T07:21:03;101520.41;;;10.75;100.00
17855;BME280;9053;53.358;6.382;2024-02-21T07:23:33;101515.97;;;10.74;100.00
17855;BME280;9053;53.358;6.382;2024-02-21T07:26:04;101508.09;;;10.74;100.00
17855;BME280;9053;53.358;6.382;2024-02-21T07:28:39;101502.75;;;10.73;100.00
17855;BME280;9053;53.358;6.382;2024-02-21T07:31:12;101508.00;;;10.73;100.00
17855;BME280;9053;53.358;6.382;2024-02-21T07:33:59;101514.16;;;10.73;100.00
17855;BME280;9053;53.358;6.382;2024-02-21T07:36:32;101501.94;;;10.74;100.00
17855;BME280;9053;53.358;6.382;2024-02-21T07:39:04;101492.28;;;10.74;100.00
17855;BME280;9053;53.358;6.382;2024-02-21T07:41:34;101501.84;;;10.72;100.00
17855;BME280;9053;53.358;6.382;2024-02-21T07:44:12;101486.19;;;10.75;100.00
17855;BME280;9053;53.358;6.382;2024-02-21T07:46:42;101475.66;;;10.75;100.00
17855;BME280;9053;53.358;6.382;2024-02-21T07:49:16;101484.44;;;10.76;100.00
17855;BME280;9053;53.358;6.382;2024-02-21T07:51:53;101478.41;;;10.78;100.00
17855;BME280;9053;53.358;6.382;2024-02-21T07:54:26;101470.69;;;10.81;100.00
17855;BME280;9053;53.358;6.382;2024-02-21T07:56:57;101469.97;;;10.86;100.00
17855;BME280;9053;53.358;6.382;2024-02-21T07:59:42;101463.88;;;10.87;100.00
17855;BME280;9053;53.358;6.382;2024-02-21T08:02:16;101467.53;;;10.90;100.00
17855;BME280;9053;53.358;6.382;2024-02-21T08:04:59;101469.34;;;10.91;100.00
17855;BME280;9053;53.358;6.382;2024-02-21T08:07:36;101468.50;;;10.92;100.00
17855;BME280;9053;53.358;6.382;2024-02-21T08:10:14;101479.78;;;10.90;100.00
17855;BME280;9053;53.358;6.382;2024-02-21T08:12:44;101472.75;;;10.89;100.00
17855;BME280;9053;53.358;6.382;2024-02-21T08:15:14;101456.75;;;10.84;100.00
17855;BME280;9053;53.358;6.382;2024-02-21T08:17:44;101465.53;;;10.85;100.00
17855;BME280;9053;53.358;6.382;2024-02-21T08:20:21;101467.16;;;10.81;100.00
17855;BME280;9053;53.358;6.382;2024-02-21T08:22:54;101456.63;;;10.81;100.00
17855;BME280;9053;53.358;6.382;2024-02-21T08:25:33;101446.94;;;10.80;100.00
17855;BME280;9053;53.358;6.382;2024-02-21T08:28:13;101443.53;;;10.82;100.00
17855;BME280;9053;53.358;6.382;2024-02-21T08:30:52;101439.91;;;10.80;100.00
17855;BME280;9053;53.358;6.382;2024-02-21T08:36:38;101433.06;;;10.84;100.00
17855;BME280;9053;53.358;6.382;2024-02-21T08:39:50;101430.16;;;10.78;100.00
17855;BME280;9053;53.358;6.382;2024-02-21T08:42:47;101425.22;;;10.86;100.00
17855;BME280;9053;53.358;6.382;2024-02-21T08:45:46;101424.41;;;10.87;100.00
17855;BME280;9053;53.358;6.382;2024-02-21T08:49:22;101425.09;;;10.82;100.00
17855;BME280;9053;53.358;6.382;2024-02-21T08:51:35;101419.16;;;10.87;100.00
17855;BME280;9053;53.358;6.382;2024-02-21T08:54:08;101415.63;;;10.86;100.00
17855;BME280;9053;53.358;6.382;2024-02-21T08:56:39;101403.41;;;10.88;100.00
17855;BME280;9053;53.358;6.382;2024-02-21T08:59:10;101399.75;;;10.85;100.00
17855;BME280;9053;53.358;6.382;2024-02-21T09:08:12;101377.81;;;10.84;100.00
17855;BME280;9053;53.358;6.382;2024-02-21T09:11:38;101373.34;;;10.81;100.00
17855;BME280;9053;53.358;6.382;2024-02-21T09:14:26;101362.34;;;10.92;100.00
17855;BME280;9053;53.358;6.382;2024-02-21T09:16:59;101379.09;;;10.94;100.00
17855;BME280;9053;53.358;6.382;2024-02-21T09:19:29;101384.47;;;10.97;100.00
17855;BME280;9053;53.358;6.382;2024-02-21T09:22:00;101387.22;;;11.00;100.00
17855;BME280;9053;53.358;6.382;2024-02-21T09:24:30;101389.97;;;11.03;100.00
17855;BME280;9053;53.358;6.382;2024-02-21T09:33:56;101375.84;;;11.01;100.00
17855;BME280;9053;53.358;6.382;2024-02-21T09:36:36;101371.56;;;11.03;100.00
17855;BME280;9053;53.358;6.382;2024-02-21T09:39:46;101372.53;;;11.05;100.00
17855;BME280;9053;53.358;6.382;2024-02-21T09:43:02;101361.53;;;11.15;100.00
17855;BME280;9053;53.358;6.382;2024-02-21T09:45:38;101351.69;;;11.11;100.00
17855;BME280;9053;53.358;6.382;2024-02-21T09:48:30;101356.97;;;11.11;100.00
17855;BME280;9053;53.358;6.382;2024-02-21T09:51:19;101355.25;;;11.12;100.00
17855;BME280;9053;53.358;6.382;2024-02-21T09:53:53;101345.69;;;11.14;100.00
17855;BME280;9053;53.358;6.382;2024-02-21T09:56:45;101337.72;;;11.12;100.00
17855;BME280;9053;53.358;6.382;2024-02-21T09:59:16;101343.09;;;11.15;100.00
17855;BME280;9053;53.358;6.382;2024-02-21T10:01:48;101330.78;;;11.14;100.00
17855;BME280;9053;53.358;6.382;2024-02-21T10:04:26;101319.38;;;11.14;100.00
17855;BME280;9053;53.358;6.382;2024-02-21T10:07:02;101308.94;;;11.17;100.00
17855;BME280;9053;53.358;6.382;2024-02-21T10:09:34;101306.34;;;11.18;100.00
17855;BME280;9053;53.358;6.382;2024-02-21T10:19:55;101284.47;;;11.19;100.00
17855;BME280;9053;53.358;6.382;2024-02-21T10:46:13;101248.91;;;11.31;100.00
17855;BME280;9053;53.358;6.382;2024-02-21T10:49:42;101244.59;;;11.33;100.00
17855;BME280;9053;53.358;6.382;2024-02-21T11:07:58;101213.59;;;11.50;100.00
17855;BME280;9053;53.358;6.382;2024-02-21T12:21:39;101034.25;;;11.95;100.00
17855;BME280;9053;53.358;6.382;2024-02-21T12:24:21;101027.06;;;11.90;100.00
17855;BME280;9053;53.358;6.382;2024-02-21T12:26:52;101011.06;;;11.86;100.00
17855;BME280;9053;53.358;6.382;2024-02-21T12:29:25;101015.41;;;11.84;100.00
17855;BME280;9053;53.358;6.382;2024-02-21T12:31:59;101014.56;;;11.85;100.00
17855;BME280;9053;53.358;6.382;2024-02-21T12:34:35;100995.91;;;11.79;100.00
17855;BME280;9053;53.358;6.382;2024-02-21T12:37:25;100982.84;;;11.82;100.00
17855;BME280;9053;53.358;6.382;2024-02-21T12:39:58;100976.63;;;11.80;100.00
17855;BME280;9053;53.358;6.382;2024-02-21T12:42:27;100968.69;;;11.78;100.00
17855;BME280;9053;53.358;6.382;2024-02-21T12:48:24;100974.91;;;11.80;100.00
17855;BME280;9053;53.358;6.382;2024-02-21T12:51:37;100951.91;;;11.76;100.00
17855;BME280;9053;53.358;6.382;2024-02-21T12:54:19;100953.59;;;11.74;100.00
17855;BME280;9053;53.358;6.382;2024-02-21T13:28:19;100822.00;;;11.79;100.00
17855;BME280;9053;53.358;6.382;2024-02-21T13:30:55;100815.06;;;11.81;100.00
17855;BME280;9053;53.358;6.382;2024-02-21T13:33:31;100798.41;;;11.82;100.00
17855;BME280;9053;53.358;6.382;2024-02-21T13:36:06;100791.41;;;11.84;100.00
17855;BME280;9053;53.358;6.382;2024-02-21T13:38:38;100774.00;;;11.87;100.00
17855;BME280;9053;53.358;6.382;2024-02-21T13:43:51;100753.03;;;11.92;100.00
17855;BME280;9053;53.358;6.382;2024-02-21T13:46:24;100739.94;;;11.95;100.00
17855;BME280;9053;53.358;6.382;2024-02-21T13:49:02;100761.03;;;11.97;100.00
17855;BME280;9053;53.358;6.382;2024-02-21T13:51:36;100750.47;;;11.95;100.00
17855;BME280;9053;53.358;6.382;2024-02-21T13:54:11;100746.91;;;11.93;100.00
17855;BME280;9053;53.358;6.382;2024-02-21T13:56:49;100749.50;;;11.91;99.99
17855;BME280;9053;53.358;6.382;2024-02-21T14:10:44;100714.97;;;11.82;99.20
17855;BME280;9053;53.358;6.382;2024-02-21T14:13:17;100706.09;;;11.79;99.02
17855;BME280;9053;53.358;6.382;2024-02-21T14:15:47;100684.97;;;11.77;98.99
17855;BME280;9053;53.358;6.382;2024-02-21T14:18:22;100670.94;;;11.78;99.07
17855;BME280;9053;53.358;6.382;2024-02-21T14:20:52;100663.84;;;11.76;98.84
17855;BME280;9053;53.358;6.382;2024-02-21T14:23:27;100662.09;;;11.75;98.93
17855;BME280;9053;53.358;6.382;2024-02-21T14:26:04;100643.50;;;11.70;98.82
17855;BME280;9053;53.358;6.382;2024-02-21T14:28:34;100645.25;;;11.69;98.70
17855;BME280;9053;53.358;6.382;2024-02-21T14:31:06;100653.97;;;11.67;98.64
17855;BME280;9053;53.358;6.382;2024-02-21T14:33:45;100632.91;;;11.67;98.44
17855;BME280;9053;53.358;6.382;2024-02-21T14:36:17;100630.06;;;11.59;98.21
17855;BME280;9053;53.358;6.382;2024-02-21T14:38:53;100623.88;;;11.59;98.06
17855;BME280;9053;53.358;6.382;2024-02-21T14:41:32;100617.59;;;11.54;97.79
17855;BME280;9053;53.358;6.382;2024-02-21T14:44:15;100612.34;;;11.54;97.63
17855;BME280;9053;53.358;6.382;2024-02-21T14:46:46;100607.94;;;11.53;97.64
17855;BME280;9053;53.358;6.382;2024-02-21T14:49:16;100602.63;;;11.51;97.62
17855;BME280;9053;53.358;6.382;2024-02-21T14:51:48;100609.63;;;11.51;97.54
17855;BME280;9053;53.358;6.382;2024-02-21T14:54:19;100597.34;;;11.51;97.35
17855;BME280;9053;53.358;6.382;2024-02-21T14:56:52;100596.44;;;11.49;97.42
17855;BME280;9053;53.358;6.382;2024-02-21T14:59:24;100595.53;;;11.48;97.44
17855;BME280;9053;53.358;6.382;2024-02-21T15:02:00;100591.06;;;11.46;97.45
17855;BME280;9053;53.358;6.382;2024-02-21T15:04:32;100582.28;;;11.45;97.39
17855;BME280;9053;53.358;6.382;2024-02-21T15:07:04;100585.69;;;11.41;97.28
17855;BME280;9053;53.358;6.382;2024-02-21T15:09:40;100575.16;;;11.41;97.38
17855;BME280;9053;53.358;6.382;2024-02-21T15:12:13;100570.81;;;11.43;97.25
17855;BME280;9053;53.358;6.382;2024-02-21T15:14:46;100566.41;;;11.42;97.20
17855;BME280;9053;53.358;6.382;2024-02-21T15:17:16;100559.28;;;11.38;97.23
17855;BME280;9053;53.358;6.382;2024-02-21T15:19:46;100551.38;;;11.38;97.32
17855;BME280;9053;53.358;6.382;2024-02-21T15:22:20;100541.75;;;11.39;97.38
17855;BME280;9053;53.358;6.382;2024-02-21T15:24:56;100533.00;;;11.40;97.39
17855;BME280;9053;53.358;6.382;2024-02-21T15:27:31;100534.75;;;11.39;97.48
17855;BME280;9053;53.358;6.382;2024-02-21T15:30:10;100518.97;;;11.41;97.55
17855;BME280;9053;53.358;6.382;2024-02-21T15:33:09;100506.69;;;11.40;97.63
17855;BME280;9053;53.358;6.382;2024-02-21T15:35:50;100496.16;;;11.40;97.73
17855;BME280;9053;53.358;6.382;2024-02-21T15:38:21;100492.66;;;11.41;98.01
17855;BME280;9053;53.358;6.382;2024-02-21T15:40:57;100466.28;;;11.39;98.01
17855;BME280;9053;53.358;6.382;2024-02-21T15:43:34;100454.84;;;11.39;98.23
17855;BME280;9053;53.358;6.382;2024-02-21T15:46:11;100441.66;;;11.37;98.30
17855;BME280;9053;53.358;6.382;2024-02-21T15:48:47;100441.69;;;11.39;98.58
17855;BME280;9053;53.358;6.382;2024-02-21T15:51:21;100431.13;;;11.37;98.84
17855;BME280;9053;53.358;6.382;2024-02-21T15:53:54;100428.50;;;11.37;99.01
17855;BME280;9053;53.358;6.382;2024-02-21T15:56:24;100429.31;;;11.35;99.27
17855;BME280;9053;53.358;6.382;2024-02-21T15:59:03;100428.34;;;11.31;99.35
17855;BME280;9053;53.358;6.382;2024-02-21T16:01:48;100419.53;;;11.29;99.69
17855;BME280;9053;53.358;6.382;2024-02-21T16:04:21;100395.81;;;11.27;99.91
17855;BME280;9053;53.358;6.382;2024-02-21T16:07:07;100385.28;;;11.27;100.00
17855;BME280;9053;53.358;6.382;2024-02-21T16:09:37;100369.41;;;11.24;100.00
17855;BME280;9053;53.358;6.382;2024-02-21T16:12:11;100367.63;;;11.23;100.00
17855;BME280;9053;53.358;6.382;2024-02-21T16:14:47;100364.97;;;11.23;100.00
17855;BME280;9053;53.358;6.382;2024-02-21T16:17:25;100351.00;;;11.26;100.00
17855;BME280;9053;53.358;6.382;2024-02-21T16:20:01;100343.09;;;11.24;100.00
17855;BME280;9053;53.358;6.382;2024-02-21T16:22:32;100329.78;;;11.18;100.00
17855;BME280;9053;53.358;6.382;2024-02-21T16:25:04;100327.06;;;11.15;100.00
17855;BME280;9053;53.358;6.382;2024-02-21T16:27:38;100315.63;;;11.13;100.00
17855;BME280;9053;53.358;6.382;2024-02-21T16:30:12;100306.78;;;11.10;100.00
17855;BME280;9053;53.358;6.382;2024-02-21T16:32:53;100305.06;;;11.12;100.00
17855;BME280;9053;53.358;6.382;2024-02-21T16:35:30;100300.53;;;11.06;100.00
17855;BME280;9053;53.358;6.382;2024-02-21T16:38:06;100288.25;;;11.05;100.00
17855;BME280;9053;53.358;6.382;2024-02-21T16:40:38;100274.97;;;11.00;100.00
17855;BME280;9053;53.358;6.382;2024-02-21T16:43:11;100269.72;;;10.99;100.00
17855;BME280;9053;53.358;6.382;2024-02-21T16:45:49;100250.34;;;10.97;100.00
17855;BME280;9053;53.358;6.382;2024-02-21T16:48:23;100246.03;;;10.99;100.00
17855;BME280;9053;53.358;6.382;2024-02-21T16:50:53;100242.47;;;10.97;100.00
17855;BME280;9053;53.358;6.382;2024-02-21T17:35:54;100194.38;;;10.65;100.00
17855;BME280;9053;53.358;6.382;2024-02-21T17:38:24;100182.09;;;10.64;100.00
17855;BME280;9053;53.358;6.382;2024-02-21T17:41:00;100178.50;;;10.60;100.00
17855;BME280;9053;53.358;6.382;2024-02-21T17:43:30;100173.22;;;10.60;100.00
17855;BME280;9053;53.358;6.382;2024-02-21T17:46:02;100174.13;;;10.60;100.00
17855;BME280;9053;53.358;6.382;2024-02-21T17:48:33;100170.59;;;10.58;100.00
17855;BME280;9053;53.358;6.382;2024-02-21T17:51:07;100158.16;;;10.53;100.00
17855;BME280;9053;53.358;6.382;2024-02-21T17:53:37;100154.72;;;10.55;100.00
17855;BME280;9053;53.358;6.382;2024-02-21T17:56:23;100145.00;;;10.53;100.00
17855;BME280;9053;53.358;6.382;2024-02-21T17:58:55;100141.56;;;10.54;100.00
17855;BME280;9053;53.358;6.382;2024-02-21T18:01:28;100124.09;;;10.57;100.00
17855;BME280;9053;53.358;6.382;2024-02-21T18:04:00;100134.59;;;10.56;100.00
17855;BME280;9053;53.358;6.382;2024-02-21T18:06:33;100127.53;;;10.53;100.00
17855;BME280;9053;53.358;6.382;2024-02-21T18:09:08;100129.22;;;10.51;100.00
17855;BME280;9053;53.358;6.382;2024-02-21T18:11:50;100116.91;;;10.49;100.00
17855;BME280;9053;53.358;6.382;2024-02-21T18:14:24;100109.09;;;10.52;100.00
17855;BME280;9053;53.358;6.382;2024-02-21T18:16:54;100094.91;;;10.45;100.00
17855;BME280;9053;53.358;6.382;2024-02-21T18:19:24;100097.56;;;10.47;100.00
17855;BME280;9053;53.358;6.382;2024-02-21T18:22:24;100097.53;;;10.45;100.00
17855;BME280;9053;53.358;6.382;2024-02-21T18:24:54;100083.47;;;10.43;100.00
17855;BME280;9053;53.358;6.382;2024-02-21T18:27:26;100071.22;;;10.44;100.00
17855;BME280;9053;53.358;6.382;2024-02-21T18:29:58;100063.28;;;10.42;100.00
17855;BME280;9053;53.358;6.382;2024-02-21T18:32:32;100065.94;;;10.42;100.00
17855;BME280;9053;53.358;6.382;2024-02-21T18:35:10;100061.50;;;10.39;100.00
17855;BME280;9053;53.358;6.382;2024-02-21T18:37:47;100055.38;;;10.40;100.00
17855;BME280;9053;53.358;6.382;2024-02-21T18:40:20;100054.53;;;10.42;100.00
17855;BME280;9053;53.358;6.382;2024-02-21T18:42:50;100056.22;;;10.39;100.00
17855;BME280;9053;53.358;6.382;2024-02-21T18:45:24;100051.84;;;10.40;100.00
17855;BME280;9053;53.358;6.382;2024-02-21T18:48:01;100038.72;;;10.40;100.00
17855;BME280;9053;53.358;6.382;2024-02-21T18:50:31;100043.97;;;10.38;100.00
17855;BME280;9053;53.358;6.382;2024-02-21T18:53:03;100036.94;;;10.39;100.00
17855;BME280;9053;53.358;6.382;2024-02-21T18:55:35;100031.69;;;10.39;100.00
17855;BME280;9053;53.358;6.382;2024-02-21T18:58:06;100028.19;;;10.38;100.00
17855;BME280;9053;53.358;6.382;2024-02-21T19:00:37;100006.28;;;10.39;100.00
17855;BME280;9053;53.358;6.382;2024-02-21T19:03:14;99997.53;;;10.39;100.00
17855;BME280;9053;53.358;6.382;2024-02-21T19:05:43;100006.19;;;10.35;100.00
17855;BME280;9053;53.358;6.382;2024-02-21T19:08:17;99991.31;;;10.35;100.00
17855;BME280;9053;53.358;6.382;2024-02-21T19:10:47;99990.41;;;10.35;100.00
17855;BME280;9053;53.358;6.382;2024-02-21T19:13:20;99993.03;;;10.35;100.00
17855;BME280;9053;53.358;6.382;2024-02-21T19:15:50;99980.78;;;10.34;100.00